createdAt,value
2017-09-13T00:02:26.754Z,96.40
2017-09-13T00:04:54.353Z,96.30
2017-09-13T00:07:21.957Z,96.20
2017-09-13T00:09:50.301Z,95.90
2017-09-13T00:12:17.875Z,96.00
2017-09-13T00:14:45.501Z,95.90
2017-09-13T00:17:13.080Z,96.00
2017-09-13T00:19:40.661Z,96.00
2017-09-13T00:22:08.281Z,96.00
2017-09-13T00:24:35.841Z,96.00
2017-09-13T00:27:03.414Z,95.90
2017-09-13T00:29:31.035Z,95.70
2017-09-13T00:31:58.618Z,95.50
2017-09-13T00:34:27.072Z,95.30
2017-09-13T00:36:54.667Z,95.30
2017-09-13T00:39:22.268Z,95.30
2017-09-13T00:41:49.870Z,95.30
2017-09-13T00:44:18.243Z,95.20
2017-09-13T00:46:45.828Z,95.20
2017-09-13T00:49:14.175Z,95.20
2017-09-13T00:51:41.794Z,95.20
2017-09-13T00:54:09.384Z,95.30
2017-09-13T00:56:36.993Z,95.20
2017-09-13T00:59:05.374Z,95.40
2017-09-13T01:01:33.742Z,95.30
2017-09-13T01:04:02.087Z,95.30
2017-09-13T01:06:29.699Z,95.20
2017-09-13T01:08:58.035Z,95.20
2017-09-13T01:11:25.605Z,95.20
2017-09-13T01:13:53.265Z,95.20
2017-09-13T01:16:20.842Z,95.20
2017-09-13T01:18:48.433Z,95.20
2017-09-13T01:21:16.821Z,95.20
2017-09-13T01:23:44.395Z,95.20
2017-09-13T01:26:11.970Z,95.10
2017-09-13T01:28:39.597Z,95.10
2017-09-13T01:31:07.959Z,95.10
2017-09-13T01:33:35.536Z,95.10
2017-09-13T01:36:03.894Z,95.00
2017-09-13T01:38:31.471Z,95.00
2017-09-13T01:40:59.830Z,94.80
2017-09-13T01:43:27.439Z,94.70
2017-09-13T01:45:55.015Z,94.70
2017-09-13T01:48:22.600Z,94.90
2017-09-13T01:50:50.185Z,95.00
2017-09-13T01:53:17.764Z,95.70
2017-09-13T01:55:46.111Z,96.50
2017-09-13T01:58:13.712Z,96.50
2017-09-13T02:00:42.057Z,97.60
2017-09-13T02:03:09.643Z,97.60
2017-09-13T02:05:37.238Z,98.10
2017-09-13T02:08:04.811Z,98.80
2017-09-13T02:10:32.404Z,99.00
2017-09-13T02:13:00.007Z,99.30
2017-09-13T02:15:28.369Z,99.90
2017-09-13T02:17:55.958Z,99.90
2017-09-13T02:20:24.332Z,99.90
2017-09-13T02:22:52.711Z,99.90
2017-09-13T02:25:21.046Z,99.90
2017-09-13T02:27:48.667Z,99.90
2017-09-13T02:30:16.229Z,99.90
2017-09-13T02:32:44.582Z,99.90
2017-09-13T02:35:12.206Z,99.90
2017-09-13T02:37:39.775Z,99.90
2017-09-13T02:40:07.378Z,99.90
2017-09-13T02:42:35.710Z,99.90
2017-09-13T02:45:03.298Z,99.90
2017-09-13T02:47:30.895Z,99.90
2017-09-13T02:49:59.235Z,99.90
2017-09-13T02:52:26.843Z,99.90
2017-09-13T02:54:55.207Z,99.90
2017-09-13T02:57:23.554Z,99.90
2017-09-13T02:59:51.140Z,99.90
2017-09-13T03:02:18.714Z,99.90
2017-09-13T03:04:47.096Z,99.90
2017-09-13T03:07:15.442Z,99.90
2017-09-13T03:09:43.019Z,99.90
2017-09-13T03:12:10.630Z,99.90
2017-09-13T03:14:38.230Z,99.90
2017-09-13T03:17:05.840Z,99.90
2017-09-13T03:19:33.410Z,99.90
2017-09-13T03:22:01.003Z,99.90
2017-09-13T03:24:28.618Z,99.90
2017-09-13T03:26:56.984Z,99.90
2017-09-13T03:29:24.584Z,99.90
2017-09-13T03:31:52.179Z,99.90
2017-09-13T03:34:19.756Z,99.90
2017-09-13T03:36:47.344Z,99.90
2017-09-13T03:39:15.677Z,99.90
2017-09-13T03:41:43.301Z,99.90
2017-09-13T03:44:10.865Z,99.90
2017-09-13T03:46:39.209Z,99.90
2017-09-13T03:49:06.820Z,99.90
2017-09-13T03:51:34.396Z,99.90
2017-09-13T03:54:01.990Z,99.90
2017-09-13T03:56:29.567Z,99.90
2017-09-13T03:58:57.162Z,99.90
2017-09-13T04:01:24.765Z,99.90
2017-09-13T04:03:52.338Z,99.90
2017-09-13T04:06:19.937Z,99.90
2017-09-13T04:08:48.280Z,99.90
2017-09-13T04:11:15.842Z,99.90
2017-09-13T04:13:43.421Z,99.90
2017-09-13T04:16:11.015Z,99.90
2017-09-13T04:18:38.646Z,99.90
2017-09-13T04:21:06.214Z,99.90
2017-09-13T04:23:33.774Z,99.90
2017-09-13T04:26:01.389Z,99.90
2017-09-13T04:28:28.972Z,99.90
2017-09-13T04:30:56.585Z,99.90
2017-09-13T04:33:24.924Z,99.90
2017-09-13T04:35:53.283Z,99.90
2017-09-13T04:38:20.901Z,99.90
2017-09-13T04:40:49.247Z,99.90
2017-09-13T04:43:16.854Z,99.90
2017-09-13T04:45:45.202Z,99.90
2017-09-13T04:48:12.794Z,99.90
2017-09-13T04:50:41.164Z,99.90
2017-09-13T04:53:09.515Z,99.90
2017-09-13T04:55:37.124Z,99.90
2017-09-13T04:58:04.710Z,99.90
2017-09-13T05:00:32.305Z,99.90
2017-09-13T05:02:59.913Z,99.90
2017-09-13T05:05:27.474Z,99.90
2017-09-13T05:07:55.856Z,99.90
2017-09-13T05:10:23.430Z,99.90
2017-09-13T05:12:50.996Z,99.90
2017-09-13T05:15:18.582Z,99.90
2017-09-13T05:17:46.164Z,99.90
2017-09-13T05:20:13.770Z,99.90
2017-09-13T05:22:41.358Z,99.90
2017-09-13T05:25:08.922Z,99.90
2017-09-13T05:27:36.532Z,99.90
2017-09-13T05:30:04.892Z,99.90
2017-09-13T05:32:32.495Z,99.90
2017-09-13T05:35:00.057Z,99.90
2017-09-13T05:37:27.636Z,99.90
2017-09-13T05:39:55.244Z,99.90
2017-09-13T05:42:22.830Z,99.90
2017-09-13T05:44:51.209Z,99.90
2017-09-13T05:47:19.566Z,99.90
2017-09-13T05:49:47.131Z,99.90
2017-09-13T05:52:14.726Z,99.90
2017-09-13T05:54:43.089Z,99.90
2017-09-13T05:57:11.479Z,99.90
2017-09-13T05:59:39.840Z,99.90
2017-09-13T06:02:07.429Z,99.90
2017-09-13T06:04:35.814Z,99.90
2017-09-13T06:07:04.166Z,99.90
2017-09-13T06:09:31.777Z,99.90
2017-09-13T06:11:59.369Z,99.90
2017-09-13T06:14:26.957Z,99.90
2017-09-13T06:16:54.581Z,99.90
2017-09-13T06:19:22.161Z,99.90
2017-09-13T06:21:49.781Z,99.90
2017-09-13T06:24:17.358Z,99.90
2017-09-13T06:26:44.954Z,99.90
2017-09-13T06:29:12.548Z,99.90
2017-09-13T06:31:40.902Z,99.90
2017-09-13T06:34:08.490Z,99.90
2017-09-13T06:36:36.821Z,99.90
2017-09-13T06:39:04.387Z,99.90
2017-09-13T06:41:31.989Z,99.90
2017-09-13T06:44:00.351Z,99.90
2017-09-13T06:46:27.945Z,99.90
2017-09-13T06:48:56.296Z,99.90
2017-09-13T06:51:23.896Z,99.90
2017-09-13T06:53:52.264Z,99.90
2017-09-13T06:56:21.516Z,99.90
2017-09-13T06:58:49.121Z,99.90
2017-09-13T07:01:17.469Z,99.90
2017-09-13T07:03:45.062Z,99.90
2017-09-13T07:06:13.445Z,99.90
2017-09-13T07:08:41.850Z,99.90
2017-09-13T07:11:09.486Z,99.90
2017-09-13T07:13:37.060Z,99.90
2017-09-13T07:16:05.395Z,99.90
2017-09-13T07:18:33.003Z,99.90
2017-09-13T07:21:01.353Z,99.90
2017-09-13T07:23:28.974Z,99.90
2017-09-13T07:25:56.570Z,99.90
2017-09-13T07:28:24.137Z,99.90
2017-09-13T07:30:52.512Z,99.80
2017-09-13T07:33:20.111Z,99.90
2017-09-13T07:35:48.507Z,99.70
2017-09-13T07:38:16.079Z,99.70
2017-09-13T07:40:43.824Z,99.00
2017-09-13T07:43:11.432Z,98.90
2017-09-13T07:45:38.999Z,98.90
2017-09-13T07:48:06.617Z,98.50
2017-09-13T07:50:34.960Z,98.60
2017-09-13T07:53:02.558Z,98.60
2017-09-13T07:55:30.177Z,97.60
2017-09-13T07:57:57.760Z,97.60
2017-09-13T08:00:25.366Z,96.60
2017-09-13T08:02:52.930Z,96.90
2017-09-13T08:05:20.513Z,96.80
2017-09-13T08:07:48.098Z,96.30
2017-09-13T08:10:15.690Z,96.10
2017-09-13T08:12:44.065Z,96.20
2017-09-13T08:15:12.438Z,95.70
2017-09-13T08:17:40.041Z,95.60
2017-09-13T08:20:07.649Z,95.00
2017-09-13T08:22:35.229Z,94.80
2017-09-13T08:25:03.620Z,95.30
2017-09-13T08:27:31.957Z,94.60
2017-09-13T08:29:59.521Z,94.60
2017-09-13T08:32:27.124Z,94.30
2017-09-13T08:34:55.487Z,94.20
2017-09-13T08:37:23.122Z,94.20
2017-09-13T08:39:50.699Z,94.60
2017-09-13T08:42:18.302Z,94.00
2017-09-13T08:44:46.681Z,92.70
2017-09-13T08:47:15.006Z,92.20
2017-09-13T08:49:42.626Z,92.20
2017-09-13T08:52:10.964Z,91.20
2017-09-13T08:54:38.553Z,91.20
2017-09-13T08:57:06.934Z,91.50
2017-09-13T08:59:35.304Z,90.90
2017-09-13T09:02:02.919Z,90.90
2017-09-13T09:04:30.477Z,90.30
2017-09-13T09:06:58.046Z,90.60
2017-09-13T09:09:25.652Z,91.00
2017-09-13T09:11:53.260Z,90.10
2017-09-13T09:14:20.858Z,87.90
2017-09-13T09:16:48.449Z,89.40
2017-09-13T09:19:16.062Z,86.70
2017-09-13T09:21:43.666Z,87.00
2017-09-13T09:24:11.264Z,87.60
2017-09-13T09:26:39.804Z,88.20
2017-09-13T09:29:08.163Z,89.30
2017-09-13T09:31:35.751Z,89.30
2017-09-13T09:34:03.337Z,90.60
2017-09-13T09:36:31.681Z,90.90
2017-09-13T09:38:59.297Z,90.90
2017-09-13T09:41:27.619Z,92.20
2017-09-13T09:43:55.186Z,92.20
2017-09-13T09:46:22.769Z,92.70
2017-09-13T09:48:50.352Z,93.10
2017-09-13T09:51:18.723Z,92.30
2017-09-13T09:53:47.059Z,92.80
2017-09-13T09:56:14.653Z,92.80
2017-09-13T09:58:42.237Z,93.70
2017-09-13T10:01:10.583Z,91.20
2017-09-13T10:03:38.196Z,91.20
2017-09-13T10:06:05.789Z,89.50
2017-09-13T10:08:33.359Z,89.00
2017-09-13T10:11:00.941Z,87.90
2017-09-13T10:13:28.510Z,84.30
2017-09-13T10:15:56.130Z,84.40
2017-09-13T10:18:23.685Z,84.60
2017-09-13T10:20:51.249Z,81.70
2017-09-13T10:23:18.855Z,81.00
2017-09-13T10:25:47.200Z,79.80
2017-09-13T10:28:14.819Z,79.90
2017-09-13T10:30:43.182Z,78.00
2017-09-13T10:33:10.738Z,77.90
2017-09-13T10:35:38.333Z,79.00
2017-09-13T10:38:06.671Z,76.90
2017-09-13T10:40:34.295Z,76.90
2017-09-13T10:43:01.865Z,76.40
2017-09-13T10:45:29.445Z,75.30
2017-09-13T10:47:57.024Z,73.90
2017-09-13T10:50:24.581Z,72.80
2017-09-13T10:52:52.173Z,72.00
2017-09-13T10:55:19.730Z,73.00
2017-09-13T10:57:47.300Z,72.80
2017-09-13T11:00:15.677Z,74.00
2017-09-13T11:02:44.059Z,71.80
2017-09-13T11:05:12.474Z,75.30
2017-09-13T11:07:40.091Z,75.40
2017-09-13T11:10:07.677Z,77.10
2017-09-13T11:12:36.240Z,78.10
2017-09-13T11:15:04.608Z,80.10
2017-09-13T11:17:32.218Z,80.10
2017-09-13T11:19:59.810Z,79.00
2017-09-13T11:22:27.388Z,79.70
2017-09-13T11:24:54.983Z,75.40
2017-09-13T11:27:22.553Z,77.90
2017-09-13T11:29:50.949Z,72.70
2017-09-13T11:32:18.528Z,72.70
2017-09-13T11:34:46.118Z,73.60
2017-09-13T11:37:13.719Z,71.40
2017-09-13T11:39:42.077Z,66.30
2017-09-13T11:42:09.683Z,66.30
2017-09-13T11:44:37.380Z,64.60
2017-09-13T11:47:04.970Z,63.70
2017-09-13T11:49:32.559Z,64.80
2017-09-13T11:52:00.911Z,65.20
2017-09-13T11:54:28.514Z,64.70
2017-09-13T11:56:56.098Z,64.50
2017-09-13T11:59:23.666Z,66.20
2017-09-13T12:01:51.275Z,65.20
2017-09-13T12:04:19.707Z,66.20
2017-09-13T12:06:48.475Z,66.20
2017-09-13T12:09:16.064Z,67.30
2017-09-13T12:11:43.636Z,68.00
2017-09-13T12:14:11.227Z,67.00
2017-09-13T12:16:38.784Z,68.60
2017-09-13T12:19:06.540Z,70.20
2017-09-13T12:21:34.198Z,68.80
2017-09-13T12:24:01.883Z,69.50
2017-09-13T12:26:29.486Z,69.10
2017-09-13T12:28:57.050Z,68.20
2017-09-13T12:31:24.666Z,69.00
2017-09-13T12:33:52.253Z,69.40
2017-09-13T12:36:20.669Z,70.70
2017-09-13T12:38:48.313Z,70.70
2017-09-13T12:41:15.935Z,67.30
2017-09-13T12:43:43.541Z,66.50
2017-09-13T12:46:11.133Z,64.90
2017-09-13T12:48:38.716Z,65.70
2017-09-13T12:51:06.335Z,62.10
2017-09-13T12:53:33.925Z,63.70
2017-09-13T12:56:01.520Z,60.80
2017-09-13T12:58:29.094Z,59.20
2017-09-13T13:00:57.429Z,60.60
2017-09-13T13:03:25.025Z,60.60
2017-09-13T13:05:52.601Z,60.60
2017-09-13T13:08:20.973Z,64.70
2017-09-13T13:10:49.313Z,65.00
2017-09-13T13:13:16.891Z,64.60
2017-09-13T13:15:44.481Z,65.00
2017-09-13T13:18:12.830Z,65.00
2017-09-13T13:20:40.430Z,65.00
2017-09-13T13:23:08.766Z,66.00
2017-09-13T13:25:36.342Z,66.00
2017-09-13T13:28:03.942Z,64.20
2017-09-13T13:30:32.262Z,60.70
2017-09-13T13:32:59.840Z,60.70
2017-09-13T13:35:27.412Z,63.10
2017-09-13T13:37:54.979Z,63.50
2017-09-13T13:40:22.583Z,63.10
2017-09-13T13:42:50.148Z,63.80
2017-09-13T13:45:17.742Z,63.70
2017-09-13T13:47:45.297Z,62.50
2017-09-13T13:50:12.890Z,62.70
2017-09-13T13:52:40.488Z,64.10
2017-09-13T13:55:08.060Z,64.80
2017-09-13T13:57:35.674Z,63.80
2017-09-13T14:00:03.247Z,62.10
2017-09-13T14:02:32.304Z,62.70
2017-09-13T14:04:59.902Z,62.60
2017-09-13T14:07:27.460Z,62.60
2017-09-13T14:09:55.055Z,61.40
2017-09-13T14:12:23.394Z,63.20
2017-09-13T14:14:50.968Z,63.20
2017-09-13T14:17:18.559Z,63.60
2017-09-13T14:19:46.901Z,63.50
2017-09-13T14:22:14.516Z,63.40
2017-09-13T14:24:42.105Z,63.00
2017-09-13T14:27:09.676Z,61.20
2017-09-13T14:29:37.275Z,62.10
2017-09-13T14:32:05.605Z,62.40
2017-09-13T14:34:33.242Z,61.80
2017-09-13T14:37:00.813Z,62.80
2017-09-13T14:39:28.385Z,62.80
2017-09-13T14:41:55.983Z,63.70
2017-09-13T14:44:23.558Z,64.50
2017-09-13T14:46:51.174Z,64.50
2017-09-13T14:49:18.752Z,64.90
2017-09-13T14:51:46.335Z,64.60
2017-09-13T14:54:13.923Z,64.00
2017-09-13T14:56:42.274Z,65.50
2017-09-13T14:59:09.886Z,65.50
2017-09-13T15:01:37.459Z,66.70
2017-09-13T15:04:05.031Z,67.80
2017-09-13T15:06:32.629Z,69.70
2017-09-13T15:09:00.205Z,70.90
2017-09-13T15:11:27.806Z,70.40
2017-09-13T15:13:55.384Z,69.50
2017-09-13T15:16:22.990Z,70.00
2017-09-13T15:18:50.564Z,70.40
2017-09-13T15:21:18.913Z,74.70
2017-09-13T15:23:46.493Z,74.70
2017-09-13T15:26:14.119Z,77.30
2017-09-13T15:28:41.692Z,80.20
2017-09-13T15:31:09.270Z,81.60
2017-09-13T15:33:36.859Z,83.30
2017-09-13T15:36:05.191Z,84.50
2017-09-13T15:38:32.807Z,84.40
2017-09-13T15:41:00.395Z,85.10
2017-09-13T15:43:28.014Z,86.10
2017-09-13T15:45:55.596Z,86.80
2017-09-13T15:48:23.941Z,87.90
2017-09-13T15:50:51.547Z,87.90
2017-09-13T15:53:19.901Z,89.10
2017-09-13T15:55:47.489Z,89.10
2017-09-13T15:58:15.850Z,89.10
2017-09-13T16:00:44.233Z,90.00
2017-09-13T16:03:12.571Z,90.70
2017-09-13T16:05:40.151Z,90.30
2017-09-13T16:08:07.744Z,90.80
2017-09-13T16:10:36.077Z,91.80
2017-09-13T16:13:03.785Z,91.80
2017-09-13T16:15:32.136Z,92.10
2017-09-13T16:17:59.726Z,92.00
2017-09-13T16:20:28.057Z,92.20
2017-09-13T16:22:55.648Z,92.20
2017-09-13T16:25:23.230Z,91.70
2017-09-13T16:27:51.584Z,91.10
2017-09-13T16:30:19.256Z,91.10
2017-09-13T16:32:46.846Z,90.90
2017-09-13T16:35:15.175Z,92.70
2017-09-13T16:37:42.783Z,92.70
2017-09-13T16:40:11.133Z,94.60
2017-09-13T16:42:38.735Z,94.50
2017-09-13T16:45:07.081Z,94.30
2017-09-13T16:47:34.685Z,94.30
2017-09-13T16:50:02.246Z,94.50
2017-09-13T16:52:30.589Z,94.80
2017-09-13T16:54:58.189Z,94.70
2017-09-13T16:57:25.791Z,95.10
2017-09-13T16:59:53.394Z,95.00
2017-09-13T17:02:21.000Z,94.10
2017-09-13T17:04:48.560Z,93.60
2017-09-13T17:07:16.126Z,92.80
2017-09-13T17:09:43.733Z,92.00
2017-09-13T17:12:11.330Z,91.00
2017-09-13T17:14:38.945Z,89.60
2017-09-13T17:17:06.518Z,90.50
2017-09-13T17:19:34.096Z,91.50
2017-09-13T17:22:02.479Z,92.00
2017-09-13T17:24:30.823Z,91.80
2017-09-13T17:26:58.438Z,91.80
2017-09-13T17:29:26.018Z,92.00
2017-09-13T17:31:53.641Z,92.10
2017-09-13T17:34:21.252Z,92.90
2017-09-13T17:36:48.873Z,93.30
2017-09-13T17:39:17.235Z,92.60
2017-09-13T17:41:44.838Z,92.60
2017-09-13T17:44:12.536Z,92.70
2017-09-13T17:46:40.148Z,93.10
2017-09-13T17:49:08.505Z,94.10
2017-09-13T17:51:36.070Z,94.00
2017-09-13T17:54:03.700Z,94.50
2017-09-13T17:56:31.337Z,94.30
2017-09-13T17:58:58.890Z,93.80
2017-09-13T18:01:26.463Z,94.10
2017-09-13T18:03:54.059Z,94.50
2017-09-13T18:06:21.614Z,95.00
2017-09-13T18:08:49.241Z,95.40
2017-09-13T18:11:16.804Z,97.00
2017-09-13T18:13:45.176Z,98.80
2017-09-13T18:16:13.523Z,99.30
2017-09-13T18:18:41.083Z,99.30
2017-09-13T18:21:08.706Z,99.20
2017-09-13T18:23:36.392Z,99.00
2017-09-13T18:26:04.021Z,99.90
2017-09-13T18:28:31.611Z,99.90
2017-09-13T18:30:59.201Z,99.90
2017-09-13T18:33:26.843Z,99.90
2017-09-13T18:35:54.413Z,99.90
2017-09-13T18:38:21.984Z,99.90
2017-09-13T18:40:49.550Z,99.90
2017-09-13T18:43:17.145Z,99.90
2017-09-13T18:45:45.483Z,99.90
2017-09-13T18:48:13.078Z,99.90
2017-09-13T18:50:41.449Z,99.90
2017-09-13T18:53:09.050Z,99.90
2017-09-13T18:55:36.670Z,99.90
2017-09-13T18:58:04.266Z,99.90
2017-09-13T19:00:32.589Z,99.90
2017-09-13T19:03:00.191Z,99.90
2017-09-13T19:05:28.539Z,99.90
2017-09-13T19:07:56.149Z,99.90
2017-09-13T19:10:24.466Z,99.90
2017-09-13T19:12:52.066Z,99.90
2017-09-13T19:15:19.667Z,99.90
2017-09-13T19:17:47.244Z,99.90
2017-09-13T19:20:14.839Z,99.90
2017-09-13T19:22:42.397Z,99.90
2017-09-13T19:25:09.989Z,99.90
2017-09-13T19:27:38.360Z,99.90
2017-09-13T19:30:05.933Z,99.90
2017-09-13T19:32:34.307Z,99.90
2017-09-13T19:35:02.664Z,99.90
2017-09-13T19:37:30.262Z,99.90
2017-09-13T19:39:58.637Z,99.90
2017-09-13T19:42:26.996Z,99.90
2017-09-13T19:44:54.590Z,99.90
2017-09-13T19:47:22.935Z,99.90
2017-09-13T19:49:51.305Z,99.90
2017-09-13T19:52:18.893Z,99.90
2017-09-13T19:54:46.489Z,99.90
2017-09-13T19:57:14.070Z,99.90
2017-09-13T19:59:41.647Z,99.90
2017-09-13T20:02:09.259Z,99.90
2017-09-13T20:04:37.588Z,99.90
2017-09-13T20:07:05.221Z,99.90
2017-09-13T20:09:32.792Z,99.90
2017-09-13T20:12:00.357Z,99.90
2017-09-13T20:14:27.979Z,99.90
2017-09-13T20:16:55.570Z,99.90
2017-09-13T20:19:23.163Z,99.90
2017-09-13T20:21:50.763Z,99.90
2017-09-13T20:24:18.406Z,99.90
2017-09-13T20:26:46.002Z,99.90
2017-09-13T20:29:14.400Z,99.90
2017-09-13T20:31:42.003Z,99.90
2017-09-13T20:34:09.604Z,99.90
2017-09-13T20:36:37.982Z,99.90
2017-09-13T20:39:05.540Z,99.90
2017-09-13T20:41:33.107Z,99.90
2017-09-13T20:44:01.489Z,99.90
2017-09-13T20:46:29.916Z,99.90
2017-09-13T20:48:57.532Z,99.90
2017-09-13T20:51:25.103Z,99.90
2017-09-13T20:53:53.461Z,99.90
2017-09-13T20:56:21.081Z,99.90
2017-09-13T20:58:48.670Z,99.90
2017-09-13T21:01:16.262Z,99.90
2017-09-13T21:03:43.845Z,99.90
2017-09-13T21:06:12.230Z,99.90
2017-09-13T21:08:39.826Z,99.90
2017-09-13T21:11:07.407Z,99.90
2017-09-13T21:13:35.008Z,99.90
2017-09-13T21:16:03.365Z,99.90
2017-09-13T21:18:30.967Z,99.90
2017-09-13T21:20:58.564Z,99.40
2017-09-13T21:23:26.185Z,99.40
2017-09-13T21:25:54.510Z,99.90
2017-09-13T21:28:22.107Z,99.90
2017-09-13T21:30:50.461Z,99.90
2017-09-13T21:33:18.057Z,99.90
2017-09-13T21:35:46.420Z,99.90
2017-09-13T21:38:14.002Z,99.90
2017-09-13T21:40:42.377Z,99.90
2017-09-13T21:43:10.726Z,99.90
2017-09-13T21:45:38.282Z,99.90
2017-09-13T21:48:05.886Z,99.90
2017-09-13T21:50:34.227Z,99.90
2017-09-13T21:53:01.815Z,99.90
2017-09-13T21:55:29.380Z,99.90
2017-09-13T21:57:56.941Z,99.90
2017-09-13T22:00:24.539Z,99.90
2017-09-13T22:02:52.115Z,99.90
2017-09-13T22:05:19.692Z,99.90
2017-09-13T22:07:47.271Z,99.90
2017-09-13T22:10:14.848Z,99.90
2017-09-13T22:12:42.405Z,99.90
2017-09-13T22:15:10.010Z,99.90
2017-09-13T22:17:37.596Z,99.90
2017-09-13T22:20:05.185Z,99.90
2017-09-13T22:22:32.777Z,99.90
2017-09-13T22:25:01.123Z,99.90
2017-09-13T22:27:28.742Z,99.90
2017-09-13T22:35:02.800Z,99.90
2017-09-13T22:37:30.343Z,99.90
2017-09-13T22:39:58.628Z,99.90
2017-09-13T22:42:26.991Z,99.90
2017-09-13T22:44:55.333Z,99.90
2017-09-13T22:47:22.911Z,99.90
2017-09-13T22:49:50.512Z,99.90
2017-09-13T22:52:18.088Z,99.90
2017-09-13T22:54:45.696Z,99.90
2017-09-13T22:57:13.262Z,99.90
2017-09-13T22:59:40.893Z,99.90
2017-09-13T23:02:08.485Z,99.90
2017-09-13T23:04:36.095Z,99.90
2017-09-13T23:07:03.701Z,99.90
2017-09-13T23:14:38.506Z,99.90
2017-09-13T23:17:06.811Z,99.90
2017-09-13T23:19:34.326Z,99.90
2017-09-13T23:22:01.898Z,99.90
2017-09-13T23:24:29.472Z,99.90
2017-09-13T23:26:57.818Z,99.90
2017-09-13T23:29:25.415Z,99.90
2017-09-13T23:31:53.765Z,99.90
2017-09-13T23:34:21.358Z,99.90
2017-09-13T23:36:49.705Z,99.90
2017-09-13T23:39:17.302Z,99.90
2017-09-13T23:41:45.646Z,99.90
2017-09-13T23:44:13.343Z,99.90
2017-09-13T23:46:41.700Z,99.90
2017-09-13T23:49:09.314Z,99.90
2017-09-13T23:51:36.962Z,99.90
2017-09-13T23:54:05.322Z,99.90
2017-09-13T23:56:32.945Z,99.90
2017-09-13T23:59:00.544Z,99.90
